createdAt,value
2023-05-10T00:02:13.855Z,100820.28
2023-05-10T00:04:40.710Z,100808.59
2023-05-10T00:07:07.968Z,100815.38
2023-05-10T00:09:34.920Z,100808.16
2023-05-10T00:12:01.820Z,100817.47
2023-05-10T00:14:28.892Z,100812.81
2023-05-10T00:16:55.951Z,100814.66
2023-05-10T00:19:22.896Z,100813.94
2023-05-10T00:21:50.182Z,100817.91
2023-05-10T00:24:17.028Z,100814.19
2023-05-10T00:26:44.000Z,100807.63
2023-05-10T00:29:10.932Z,100811.19
2023-05-10T00:31:38.065Z,100804.41
2023-05-10T00:34:04.938Z,100809.75
2023-05-10T00:36:32.498Z,100801.88
2023-05-10T00:39:00.135Z,100791.56
2023-05-10T00:41:27.101Z,100803.59
2023-05-10T00:43:53.975Z,100794.56
2023-05-10T00:46:21.902Z,100788.69
2023-05-10T00:48:49.304Z,100788.41
2023-05-10T00:51:16.319Z,100779.75
2023-05-10T00:53:45.465Z,100763.84
2023-05-10T00:56:13.530Z,100780.78
2023-05-10T00:58:43.720Z,100771.53
2023-05-10T01:01:10.996Z,100780.97
2023-05-10T01:03:38.724Z,100778.44
2023-05-10T01:06:06.030Z,100770.72
2023-05-10T01:08:33.540Z,100765.47
2023-05-10T01:11:00.725Z,100762.84
2023-05-10T01:13:34.586Z,100764.03
2023-05-10T01:16:04.400Z,100772.28
2023-05-10T01:18:33.306Z,100770.13
2023-05-10T01:21:12.656Z,100767.69
2023-05-10T01:24:09.577Z,100771.78
2023-05-10T01:26:49.535Z,100771.00
2023-05-10T01:29:42.542Z,100763.72
2023-05-10T01:32:28.046Z,100768.78
2023-05-10T01:35:03.945Z,100771.75
2023-05-10T01:37:48.241Z,100766.34
2023-05-10T01:40:20.912Z,100773.09
2023-05-10T01:42:55.423Z,100769.81
2023-05-10T01:45:59.271Z,100756.31
2023-05-10T01:48:29.974Z,100762.06
2023-05-10T01:50:58.547Z,100766.16
2023-05-10T01:53:25.823Z,100745.34
2023-05-10T01:55:55.432Z,100765.53
2023-05-10T01:58:29.710Z,100738.13
2023-05-10T02:00:59.632Z,100758.81
2023-05-10T02:03:29.087Z,100754.78
2023-05-10T02:05:57.675Z,100753.97
2023-05-10T02:08:25.218Z,100753.66
2023-05-10T02:10:56.044Z,100758.06
2023-05-10T02:13:25.939Z,100747.75
2023-05-10T02:15:54.857Z,100737.59
2023-05-10T02:18:23.720Z,100752.03
2023-05-10T02:20:52.555Z,100754.81
2023-05-10T02:23:21.460Z,100751.38
2023-05-10T02:25:50.604Z,100758.25
2023-05-10T02:28:19.407Z,100756.47
2023-05-10T02:30:47.832Z,100744.47
2023-05-10T02:33:15.536Z,100762.19
2023-05-10T02:35:42.808Z,100759.56
2023-05-10T02:38:11.303Z,100746.25
2023-05-10T02:40:39.222Z,100746.88
2023-05-10T02:43:10.560Z,100749.00
2023-05-10T02:45:40.229Z,100744.75
2023-05-10T02:48:08.090Z,100745.91
2023-05-10T02:50:37.209Z,100748.56
2023-05-10T02:53:11.141Z,100742.31
2023-05-10T02:55:40.197Z,100742.28
2023-05-10T02:58:07.732Z,100744.59
2023-05-10T03:00:34.858Z,100745.13
2023-05-10T03:03:02.829Z,100738.25
2023-05-10T03:05:29.766Z,100729.53
2023-05-10T03:07:56.998Z,100723.16
2023-05-10T03:10:28.986Z,100736.56
2023-05-10T03:13:01.879Z,100740.22
2023-05-10T03:15:39.058Z,100731.63
2023-05-10T03:18:29.554Z,100729.16
2023-05-10T03:21:06.415Z,100731.81
2023-05-10T03:24:10.223Z,100734.06
2023-05-10T03:26:39.032Z,100730.78
2023-05-10T03:29:07.492Z,100729.31
2023-05-10T03:31:34.611Z,100716.56
2023-05-10T03:34:01.530Z,100735.38
2023-05-10T03:36:28.559Z,100737.72
2023-05-10T03:38:56.933Z,100732.16
2023-05-10T03:41:23.848Z,100683.81
2023-05-10T03:43:50.648Z,100738.38
2023-05-10T03:46:17.936Z,100730.69
2023-05-10T03:48:44.758Z,100730.84
2023-05-10T03:51:11.786Z,100733.47
2023-05-10T03:53:38.608Z,100726.25
2023-05-10T03:56:05.646Z,100728.22
2023-05-10T03:58:32.539Z,100725.56
2023-05-10T04:00:59.567Z,100717.41
2023-05-10T04:03:27.627Z,100728.66
2023-05-10T04:06:02.471Z,100728.84
2023-05-10T04:08:30.194Z,100725.38
2023-05-10T04:11:07.620Z,100726.94
2023-05-10T04:13:34.591Z,100729.28
2023-05-10T04:16:01.555Z,100727.13
2023-05-10T04:18:28.807Z,100728.25
2023-05-10T04:20:55.641Z,100717.22
2023-05-10T04:23:22.792Z,100721.28
2023-05-10T04:25:49.667Z,100727.38
2023-05-10T04:28:16.841Z,100721.75
2023-05-10T04:30:44.029Z,100723.50
2023-05-10T04:33:11.176Z,100719.72
2023-05-10T04:35:38.176Z,100723.38
2023-05-10T04:38:05.066Z,100726.09
2023-05-10T04:40:32.106Z,100714.31
2023-05-10T04:42:59.152Z,100716.34
2023-05-10T04:45:26.239Z,100717.50
2023-05-10T04:47:53.195Z,100720.09
2023-05-10T04:50:22.706Z,100707.22
2023-05-10T04:52:49.797Z,100717.34
2023-05-10T04:55:17.393Z,100727.16
2023-05-10T04:57:44.456Z,100723.81
2023-05-10T05:00:12.360Z,100730.56
2023-05-10T05:02:39.532Z,100734.75
2023-05-10T05:05:07.107Z,100726.03
2023-05-10T05:07:34.381Z,100730.84
2023-05-10T05:10:01.334Z,100735.81
2023-05-10T05:12:28.438Z,100736.59
2023-05-10T05:14:55.427Z,100727.50
2023-05-10T05:17:22.623Z,100731.16
2023-05-10T05:19:49.450Z,100735.38
2023-05-10T05:22:19.576Z,100732.66
2023-05-10T05:24:47.118Z,100734.44
2023-05-10T05:27:14.217Z,100730.63
2023-05-10T05:29:41.106Z,100728.72
2023-05-10T05:32:09.607Z,100725.91
2023-05-10T05:34:36.910Z,100731.13
2023-05-10T05:37:03.967Z,100728.66
2023-05-10T05:39:31.003Z,100729.53
2023-05-10T05:41:57.925Z,100734.59
2023-05-10T05:44:24.825Z,100733.34
2023-05-10T05:46:51.836Z,100733.72
2023-05-10T05:49:18.940Z,100737.09
2023-05-10T05:51:46.339Z,100732.44
2023-05-10T05:54:13.238Z,100731.22
2023-05-10T05:56:40.146Z,100729.31
2023-05-10T05:59:07.393Z,100735.56
2023-05-10T06:01:34.550Z,100739.84
2023-05-10T06:04:01.672Z,100741.75
2023-05-10T06:06:29.104Z,100730.28
2023-05-10T06:08:57.742Z,100731.16
2023-05-10T06:11:25.258Z,100738.72
2023-05-10T06:13:52.168Z,100740.75
2023-05-10T06:16:19.332Z,100730.75
2023-05-10T06:18:46.348Z,100729.13
2023-05-10T06:21:13.427Z,100742.78
2023-05-10T06:23:40.341Z,100742.03
2023-05-10T06:26:07.510Z,100750.25
2023-05-10T06:28:34.872Z,100740.66
2023-05-10T06:31:01.966Z,100752.38
2023-05-10T06:33:29.396Z,100752.88
2023-05-10T06:35:56.234Z,100750.56
2023-05-10T06:38:23.366Z,100740.94
2023-05-10T06:40:50.362Z,100751.44
2023-05-10T06:43:17.212Z,100759.34
2023-05-10T06:45:44.501Z,100764.31
2023-05-10T06:48:11.414Z,100760.88
2023-05-10T06:50:38.628Z,100777.09
2023-05-10T06:53:05.651Z,100773.81
2023-05-10T06:55:32.767Z,100754.69
2023-05-10T06:57:59.781Z,100769.19
2023-05-10T07:00:27.246Z,100778.66
2023-05-10T07:02:54.056Z,100764.03
2023-05-10T07:05:21.520Z,100774.50
2023-05-10T07:07:48.807Z,100775.00
2023-05-10T07:10:15.998Z,100767.88
2023-05-10T07:12:43.150Z,100768.22
2023-05-10T07:15:17.518Z,100763.19
2023-05-10T07:17:46.025Z,100752.78
2023-05-10T07:20:14.600Z,100769.78
2023-05-10T07:22:41.917Z,100775.19
2023-05-10T07:25:09.927Z,100767.13
2023-05-10T07:27:37.230Z,100768.47
2023-05-10T07:30:04.483Z,100768.22
2023-05-10T07:32:31.827Z,100782.81
2023-05-10T07:35:00.967Z,100772.63
2023-05-10T07:37:27.935Z,100777.16
2023-05-10T07:39:54.779Z,100775.09
2023-05-10T07:42:22.630Z,100777.88
2023-05-10T07:44:49.541Z,100768.72
2023-05-10T07:47:16.365Z,100786.91
2023-05-10T07:49:43.633Z,100787.03
2023-05-10T07:52:10.700Z,100786.66
2023-05-10T07:54:37.770Z,100791.06
2023-05-10T07:57:04.789Z,100789.91
2023-05-10T07:59:31.658Z,100795.72
2023-05-10T08:02:01.875Z,100796.25
2023-05-10T08:04:28.991Z,100787.50
2023-05-10T08:06:56.088Z,100809.16
2023-05-10T08:09:25.156Z,100813.78
2023-05-10T08:11:52.421Z,100829.78
2023-05-10T08:14:19.499Z,100818.50
2023-05-10T08:16:46.421Z,100835.38
2023-05-10T08:19:13.444Z,100822.31
2023-05-10T08:21:44.134Z,100823.78
2023-05-10T08:24:11.214Z,100832.16
2023-05-10T08:26:38.568Z,100837.59
2023-05-10T08:29:05.553Z,100833.56
2023-05-10T08:31:32.556Z,100847.50
2023-05-10T08:33:59.422Z,100855.09
2023-05-10T08:36:26.359Z,100850.28
2023-05-10T08:38:53.513Z,100852.72
2023-05-10T08:41:27.426Z,100861.38
2023-05-10T08:43:55.795Z,100855.63
2023-05-10T08:46:24.765Z,100856.53
2023-05-10T08:48:53.416Z,100857.16
2023-05-10T08:51:27.923Z,100853.88
2023-05-10T08:53:55.352Z,100860.75
2023-05-10T08:56:22.589Z,100867.22
2023-05-10T08:58:50.992Z,100865.94
2023-05-10T09:01:19.483Z,100868.28
2023-05-10T09:03:48.569Z,100869.94
2023-05-10T09:06:17.090Z,100880.69
2023-05-10T09:08:44.477Z,100879.19
2023-05-10T09:11:13.097Z,100874.91
2023-05-10T09:13:40.389Z,100881.56
2023-05-10T09:16:20.439Z,100849.50
2023-05-10T09:18:50.789Z,100886.03
2023-05-10T09:21:17.882Z,100878.59
2023-05-10T09:23:48.664Z,100896.84
2023-05-10T09:26:16.227Z,100880.91
2023-05-10T09:28:54.109Z,100901.97
2023-05-10T09:31:21.584Z,100912.91
2023-05-10T09:33:49.950Z,100912.44
2023-05-10T09:36:17.496Z,100928.16
2023-05-10T09:38:53.105Z,100941.91
2023-05-10T09:41:21.899Z,100938.88
2023-05-10T09:43:49.509Z,100938.41
2023-05-10T09:46:17.694Z,100938.34
2023-05-10T09:48:48.975Z,100925.53
2023-05-10T09:51:28.062Z,100939.63
2023-05-10T09:54:14.625Z,100935.72
2023-05-10T09:56:41.839Z,100937.22
2023-05-10T09:59:14.194Z,100943.25
2023-05-10T10:01:42.192Z,100945.97
2023-05-10T10:04:10.946Z,100943.59
2023-05-10T10:06:41.262Z,100945.03
2023-05-10T10:09:08.993Z,100949.75
2023-05-10T10:11:37.634Z,100948.78
2023-05-10T10:14:05.089Z,100955.72
2023-05-10T10:16:33.193Z,100957.97
2023-05-10T10:19:00.478Z,100957.47
2023-05-10T10:21:28.161Z,100953.78
2023-05-10T10:23:55.521Z,100960.94
2023-05-10T10:26:23.433Z,100965.00
2023-05-10T10:29:03.459Z,100957.69
2023-05-10T10:31:40.581Z,100965.56
2023-05-10T10:34:18.621Z,100965.03
2023-05-10T10:36:47.965Z,100970.47
2023-05-10T10:39:17.389Z,100971.66
2023-05-10T10:41:55.358Z,100972.91
2023-05-10T10:44:35.353Z,100971.50
2023-05-10T10:47:19.948Z,100965.94
2023-05-10T10:49:47.750Z,100969.38
2023-05-10T10:52:16.344Z,100972.19
2023-05-10T10:54:51.647Z,100974.25
2023-05-10T10:57:20.504Z,100977.59
2023-05-10T10:59:47.617Z,100968.84
2023-05-10T11:02:47.193Z,100986.56
2023-05-10T11:05:47.694Z,100991.97
2023-05-10T11:08:19.946Z,100986.97
2023-05-10T11:11:02.065Z,100989.91
2023-05-10T11:13:41.406Z,100993.56
2023-05-10T11:16:20.011Z,100997.56
2023-05-10T11:19:01.400Z,100983.59
2023-05-10T11:21:28.755Z,100998.38
2023-05-10T11:24:07.120Z,101004.13
2023-05-10T11:26:36.650Z,101004.91
2023-05-10T11:29:05.925Z,101005.41
2023-05-10T11:31:33.380Z,100964.06
2023-05-10T11:34:05.442Z,101001.19
2023-05-10T11:36:38.021Z,101002.19
2023-05-10T11:39:06.661Z,101001.44
2023-05-10T11:41:33.995Z,101012.47
2023-05-10T11:44:01.125Z,101006.22
2023-05-10T11:46:29.738Z,101008.38
2023-05-10T11:49:05.702Z,101011.41
2023-05-10T11:51:36.933Z,101009.69
2023-05-10T11:54:09.890Z,101023.19
2023-05-10T11:56:38.383Z,101015.03
2023-05-10T11:59:05.605Z,101029.56
2023-05-10T12:01:33.386Z,101028.41
2023-05-10T12:04:01.622Z,101023.53
2023-05-10T12:06:32.909Z,101026.44
2023-05-10T12:09:00.192Z,101029.31
2023-05-10T12:11:28.678Z,101036.47
2023-05-10T12:13:57.863Z,101033.91
2023-05-10T12:16:27.157Z,101009.38
2023-05-10T12:18:57.310Z,101034.25
2023-05-10T12:21:24.765Z,101016.47
2023-05-10T12:23:54.501Z,101026.75
2023-05-10T12:26:30.030Z,101017.41
2023-05-10T12:32:03.750Z,101039.06
2023-05-10T12:34:36.143Z,101032.84
2023-05-10T12:37:06.948Z,101034.16
2023-05-10T12:39:45.078Z,101041.38
2023-05-10T12:42:12.306Z,101028.22
2023-05-10T12:44:40.476Z,101037.97
2023-05-10T12:47:07.541Z,101040.03
2023-05-10T12:49:35.260Z,101043.78
2023-05-10T12:52:02.031Z,101028.63
2023-05-10T12:54:29.212Z,101032.72
2023-05-10T12:56:56.011Z,101041.81
2023-05-10T12:59:23.984Z,101040.44
2023-05-10T13:01:50.946Z,101040.03
2023-05-10T13:04:18.122Z,101043.88
2023-05-10T13:06:45.245Z,101042.84
2023-05-10T13:09:14.515Z,101035.22
2023-05-10T13:11:41.752Z,101049.75
2023-05-10T13:14:08.536Z,101057.97
2023-05-10T13:16:35.599Z,101059.03
2023-05-10T13:19:02.654Z,101038.22
2023-05-10T13:21:29.710Z,101051.78
2023-05-10T13:23:56.847Z,101057.19
2023-05-10T13:26:23.823Z,101049.22
2023-05-10T13:28:52.917Z,101057.06
2023-05-10T13:31:19.786Z,101057.31
2023-05-10T13:33:46.755Z,101023.69
2023-05-10T13:36:13.746Z,101055.59
2023-05-10T13:38:40.771Z,101053.81
2023-05-10T13:41:07.750Z,101058.13
2023-05-10T13:43:34.547Z,101051.66
2023-05-10T13:46:01.549Z,101055.78
2023-05-10T13:48:28.558Z,101057.41
2023-05-10T13:50:55.966Z,101052.72
2023-05-10T13:53:22.928Z,101057.66
2023-05-10T13:55:49.997Z,101052.66
2023-05-10T13:58:17.064Z,101050.72
2023-05-10T14:00:44.445Z,101055.09
2023-05-10T14:03:14.223Z,101048.03
2023-05-10T14:05:41.322Z,101053.78
2023-05-10T14:08:10.673Z,101048.50
2023-05-10T14:10:38.036Z,101043.69
2023-05-10T14:13:04.854Z,101044.84
2023-05-10T14:15:31.970Z,101050.53
2023-05-10T14:17:58.700Z,101052.66
2023-05-10T14:20:25.532Z,101053.34
2023-05-10T14:22:52.746Z,101052.66
2023-05-10T14:25:20.194Z,101049.25
2023-05-10T14:27:47.921Z,101051.31
2023-05-10T14:30:15.099Z,101057.34
2023-05-10T14:32:41.907Z,101058.81
2023-05-10T14:35:10.719Z,101058.19
2023-05-10T14:37:39.289Z,101051.72
2023-05-10T14:40:07.642Z,101053.22
2023-05-10T14:42:34.468Z,101064.34
2023-05-10T14:45:06.933Z,101012.84
2023-05-10T14:47:33.968Z,101041.50
2023-05-10T14:50:01.309Z,101063.34
2023-05-10T14:52:28.788Z,101058.22
2023-05-10T14:54:56.661Z,101031.31
2023-05-10T14:57:23.495Z,101063.44
2023-05-10T14:59:50.331Z,101046.19
2023-05-10T15:02:17.765Z,101065.34
2023-05-10T15:04:44.972Z,101065.41
2023-05-10T15:07:15.436Z,101061.16
2023-05-10T15:09:42.350Z,101068.06
2023-05-10T15:12:09.235Z,101068.88
2023-05-10T15:14:39.267Z,101063.16
2023-05-10T15:17:08.403Z,101075.34
2023-05-10T15:19:35.384Z,101077.22
2023-05-10T15:22:02.289Z,101078.91
2023-05-10T15:24:32.801Z,101080.28
2023-05-10T15:27:00.018Z,101080.28
2023-05-10T15:29:26.763Z,101089.78
2023-05-10T15:31:57.393Z,101096.31
2023-05-10T15:34:24.345Z,101092.47
2023-05-10T15:36:51.262Z,101057.38
2023-05-10T15:39:18.321Z,101084.88
2023-05-10T15:41:45.112Z,101081.16
2023-05-10T15:44:12.282Z,101089.22
2023-05-10T15:46:39.304Z,101081.03
2023-05-10T15:49:07.001Z,101103.03
2023-05-10T15:51:36.922Z,101121.31
2023-05-10T15:54:07.513Z,101123.06
2023-05-10T15:56:35.715Z,101115.91
2023-05-10T15:59:03.978Z,101091.53
2023-05-10T16:01:33.306Z,101128.22
2023-05-10T16:04:01.181Z,101123.03
2023-05-10T16:06:28.313Z,101121.06
2023-05-10T16:08:55.260Z,101122.56
2023-05-10T16:11:22.716Z,101125.47
2023-05-10T16:13:49.864Z,101127.81
2023-05-10T16:16:17.487Z,101129.03
2023-05-10T16:18:44.634Z,101133.13
2023-05-10T16:21:11.805Z,101128.31
2023-05-10T16:23:38.750Z,101133.34
2023-05-10T16:26:05.600Z,101141.25
2023-05-10T16:28:32.736Z,101142.53
2023-05-10T16:30:59.641Z,101138.41
2023-05-10T16:33:27.385Z,101127.72
2023-05-10T16:35:54.413Z,101142.50
2023-05-10T16:38:22.165Z,101146.91
2023-05-10T16:40:49.450Z,101148.41
2023-05-10T16:43:16.658Z,101152.84
2023-05-10T16:45:43.830Z,101159.28
2023-05-10T16:48:13.359Z,101167.38
2023-05-10T16:50:44.642Z,101172.38
2023-05-10T16:53:11.869Z,101182.19
2023-05-10T16:55:38.794Z,101181.69
2023-05-10T16:58:06.036Z,101199.59
2023-05-10T17:00:33.107Z,101199.00
2023-05-10T17:03:00.566Z,101198.50
2023-05-10T17:05:27.825Z,101183.22
2023-05-10T17:07:54.942Z,101202.75
2023-05-10T17:10:22.054Z,101203.38
2023-05-10T17:12:49.423Z,101211.00
2023-05-10T17:15:17.789Z,101208.34
2023-05-10T17:17:45.252Z,101215.00
2023-05-10T17:20:12.409Z,101227.13
2023-05-10T17:22:39.850Z,101224.63
2023-05-10T17:25:07.480Z,101232.47
2023-05-10T17:27:34.441Z,101233.22
2023-05-10T17:30:02.061Z,101242.09
2023-05-10T17:32:29.139Z,101246.94
2023-05-10T17:34:56.176Z,101245.50
2023-05-10T17:37:23.614Z,101247.25
2023-05-10T17:39:50.585Z,101254.59
2023-05-10T17:42:21.073Z,101257.03
2023-05-10T17:44:48.179Z,101264.63
2023-05-10T17:47:15.325Z,101259.81
2023-05-10T17:49:42.663Z,101264.66
2023-05-10T17:52:10.091Z,101262.84
2023-05-10T17:54:37.225Z,101274.94
2023-05-10T17:57:04.267Z,101271.91
2023-05-10T17:59:31.367Z,101266.13
2023-05-10T18:01:59.063Z,101273.47
2023-05-10T18:04:26.387Z,101281.00
2023-05-10T18:07:01.279Z,101278.53
2023-05-10T18:09:29.204Z,101283.66
2023-05-10T18:11:55.963Z,101279.75
2023-05-10T18:14:36.511Z,101281.91
2023-05-10T18:17:07.406Z,101286.63
2023-05-10T18:19:34.253Z,101292.72
2023-05-10T18:22:01.260Z,101295.22
2023-05-10T18:24:38.310Z,101300.75
2023-05-10T18:27:09.016Z,101300.91
2023-05-10T18:29:36.536Z,101297.72
2023-05-10T18:32:03.783Z,101286.63
2023-05-10T18:34:30.707Z,101310.13
2023-05-10T18:36:57.986Z,101312.41
2023-05-10T18:39:25.244Z,101314.91
2023-05-10T18:41:52.646Z,101311.81
2023-05-10T18:44:19.680Z,101322.47
2023-05-10T18:46:46.932Z,101317.88
2023-05-10T18:49:14.250Z,101316.09
2023-05-10T18:51:41.411Z,101318.50
2023-05-10T18:54:08.546Z,101331.59
2023-05-10T18:56:35.768Z,101319.63
2023-05-10T18:59:03.832Z,101323.09
2023-05-10T19:01:31.141Z,101324.22
2023-05-10T19:03:58.310Z,101326.44
2023-05-10T19:06:25.519Z,101331.38
2023-05-10T19:08:52.829Z,101331.94
2023-05-10T19:11:20.098Z,101335.19
2023-05-10T19:13:47.167Z,101336.53
2023-05-10T19:16:21.827Z,101342.66
2023-05-10T19:18:50.793Z,101346.81
2023-05-10T19:21:18.094Z,101351.88
2023-05-10T19:23:45.144Z,101349.75
2023-05-10T19:26:12.729Z,101357.19
2023-05-10T19:28:40.886Z,101367.03
2023-05-10T19:31:08.942Z,101354.88
2023-05-10T19:33:38.341Z,101360.94
2023-05-10T19:36:05.769Z,101374.59
2023-05-10T19:38:32.594Z,101375.44
2023-05-10T19:40:59.765Z,101382.34
2023-05-10T19:43:28.266Z,101382.84
2023-05-10T19:45:59.159Z,101383.16
2023-05-10T19:48:26.750Z,101390.44
2023-05-10T19:50:54.752Z,101383.72
2023-05-10T19:53:21.688Z,101390.13
2023-05-10T19:55:48.726Z,101394.09
2023-05-10T19:58:15.799Z,101391.13
2023-05-10T20:00:42.768Z,101389.13
2023-05-10T20:03:09.871Z,101381.72
2023-05-10T20:05:36.899Z,101383.69
2023-05-10T20:08:03.963Z,101398.84
2023-05-10T20:10:30.721Z,101376.44
2023-05-10T20:12:59.024Z,101391.06
2023-05-10T20:15:26.211Z,101397.16
2023-05-10T20:17:53.916Z,101401.78
2023-05-10T20:20:21.543Z,101395.03
2023-05-10T20:22:48.880Z,101374.44
2023-05-10T20:25:16.870Z,101401.78
2023-05-10T20:27:44.680Z,101395.84
2023-05-10T20:30:12.008Z,101360.44
2023-05-10T20:32:39.481Z,101389.91
2023-05-10T20:35:07.587Z,101397.50
2023-05-10T20:37:34.810Z,101397.38
2023-05-10T20:40:01.740Z,101386.63
2023-05-10T20:42:28.792Z,101396.88
2023-05-10T20:44:56.240Z,101376.09
2023-05-10T20:47:23.872Z,101401.78
2023-05-10T20:49:51.158Z,101402.63
2023-05-10T20:52:18.151Z,101403.97
2023-05-10T20:54:45.278Z,101398.19
2023-05-10T20:57:14.305Z,101398.97
2023-05-10T20:59:41.135Z,101392.41
2023-05-10T21:02:08.320Z,101396.88
2023-05-10T21:04:35.290Z,101394.56
2023-05-10T21:07:02.262Z,101395.38
2023-05-10T21:09:29.353Z,101397.00
2023-05-10T21:11:56.334Z,101399.47
2023-05-10T21:14:23.219Z,101401.13
2023-05-10T21:16:51.493Z,101402.00
2023-05-10T21:19:18.512Z,101400.03
2023-05-10T21:21:45.277Z,101401.00
2023-05-10T21:24:12.516Z,101390.47
2023-05-10T21:26:39.356Z,101389.09
2023-05-10T21:29:06.752Z,101401.47
2023-05-10T21:31:33.891Z,101409.56
2023-05-10T21:34:01.170Z,101406.09
2023-05-10T21:36:28.422Z,101410.72
2023-05-10T21:38:55.376Z,101409.72
2023-05-10T21:41:22.628Z,101407.75
2023-05-10T21:43:49.730Z,101402.28
2023-05-10T21:46:16.599Z,101400.78
2023-05-10T21:48:43.589Z,101408.69
2023-05-10T21:51:10.683Z,101405.06
2023-05-10T21:53:39.364Z,101409.03
2023-05-10T21:56:07.553Z,101409.22
2023-05-10T21:58:34.681Z,101408.22
2023-05-10T22:01:02.753Z,101409.53
2023-05-10T22:03:29.744Z,101412.31
2023-05-10T22:05:56.629Z,101414.00
2023-05-10T22:08:23.613Z,101409.03
2023-05-10T22:10:52.299Z,101416.78
2023-05-10T22:13:21.984Z,101356.50
2023-05-10T22:15:48.751Z,101419.75
2023-05-10T22:18:15.948Z,101417.28
2023-05-10T22:20:45.699Z,101422.53
2023-05-10T22:23:13.264Z,101413.13
2023-05-10T22:25:42.808Z,101430.75
2023-05-10T22:28:10.956Z,101428.75
2023-05-10T22:30:38.130Z,101432.56
2023-05-10T22:33:05.132Z,101431.09
2023-05-10T22:35:32.040Z,101441.63
2023-05-10T22:37:58.888Z,101440.75
2023-05-10T22:40:26.059Z,101435.69
2023-05-10T22:42:53.308Z,101440.13
2023-05-10T22:45:20.348Z,101446.19
2023-05-10T22:47:47.532Z,101450.13
2023-05-10T22:50:14.743Z,101446.53
2023-05-10T22:52:41.932Z,101456.84
2023-05-10T22:55:09.484Z,101451.75
2023-05-10T22:57:36.924Z,101453.56
2023-05-10T23:00:05.421Z,101465.56
2023-05-10T23:02:32.586Z,101461.81
2023-05-10T23:04:59.571Z,101453.59
2023-05-10T23:07:26.711Z,101448.81
2023-05-10T23:09:53.658Z,101454.28
2023-05-10T23:12:20.508Z,101458.34
2023-05-10T23:14:47.845Z,101460.53
2023-05-10T23:17:17.156Z,101463.31
2023-05-10T23:19:43.990Z,101452.94
2023-05-10T23:22:11.047Z,101456.03
2023-05-10T23:24:39.407Z,101449.81
2023-05-10T23:27:06.319Z,101457.06
2023-05-10T23:29:36.618Z,101454.63
2023-05-10T23:32:03.527Z,101464.94
2023-05-10T23:34:30.933Z,101463.44
2023-05-10T23:36:57.792Z,101464.94
2023-05-10T23:39:24.669Z,101468.22
2023-05-10T23:41:52.151Z,101465.31
2023-05-10T23:44:19.127Z,101469.38
2023-05-10T23:46:46.232Z,101456.53
2023-05-10T23:49:13.214Z,101471.84
2023-05-10T23:51:40.046Z,101460.19
2023-05-10T23:54:07.217Z,101473.16
2023-05-10T23:56:34.230Z,101472.00
2023-05-10T23:59:01.358Z,101479.59
